Time;durP1;ratioP1;P1;durP2;ratioP2;P2;SDS_P1;SDS_P2;PMS_P1;PMS_P2;Temp;Humidity;BMP_temperature;BMP_pressure;BME280_temperature;BME280_humidity;BME280_pressure;Samples;Min_cycle;Max_cycle;Signal;HPM_P1;HPM_P2
2023/05/01 00:01:07;;;;;;;;;;;14.20;99.90;;;;;;5090591;28;19908;-62
2023/05/01 00:03:32;;;;;;;;;;;14.10;99.90;;;;;;5079681;28;20349;-61
2023/05/01 00:05:59;;;;;;;;;;;14.00;99.90;;;;;;5078450;28;19908;-62
2023/05/01 00:08:24;;;;;;;;;;;14.00;99.90;;;;;;5079409;28;19955;-61
2023/05/01 00:10:50;;;;;;;;;;;13.90;99.90;;;;;;5080372;28;20580;-62
2023/05/01 00:13:20;;;;;;;;;;;13.90;99.90;;;;;;5080282;28;19908;-62
2023/05/01 00:15:46;;;;;;;;;;;13.80;99.90;;;;;;5080682;28;19914;-62
2023/05/01 00:18:12;;;;;;;;;;;13.70;99.90;;;;;;5080145;28;19916;-62
2023/05/01 00:20:38;;;;;;;;;;;13.60;99.90;;;;;;5080400;28;19988;-62
2023/05/01 00:23:03;;;;;;;;;;;13.60;99.90;;;;;;5080154;28;20003;-62
2023/05/01 00:25:30;;;;;;;;;;;13.60;99.90;;;;;;5080284;28;19989;-62
2023/05/01 00:27:55;;;;;;;;;;;13.60;99.90;;;;;;5079855;28;19924;-62
2023/05/01 00:30:21;;;;;;;;;;;13.70;99.90;;;;;;5080186;28;20367;-62
2023/05/01 00:32:47;;;;;;;;;;;13.60;99.90;;;;;;5080113;28;19934;-61
2023/05/01 00:35:12;;;;;;;;;;;13.60;99.90;;;;;;5080098;28;19915;-62
2023/05/01 00:37:38;;;;;;;;;;;13.40;99.90;;;;;;5079852;28;20269;-62
2023/05/01 00:40:04;;;;;;;;;;;13.50;99.90;;;;;;5080080;28;19909;-62
2023/05/01 00:42:38;;;;;;;;;;;13.50;99.90;;;;;;5079808;28;19909;-61
2023/05/01 00:45:07;;;;;;;;;;;13.50;99.90;;;;;;5079670;28;19915;-62
2023/05/01 00:47:34;;;;;;;;;;;13.40;99.90;;;;;;5079805;28;20322;-61
2023/05/01 00:50:00;;;;;;;;;;;13.40;99.90;;;;;;5079864;28;19913;-61
2023/05/01 00:52:26;;;;;;;;;;;13.20;99.90;;;;;;5079556;28;19912;-62
2023/05/01 00:54:52;;;;;;;;;;;13.10;99.90;;;;;;5079555;28;19908;-62
2023/05/01 00:57:21;;;;;;;;;;;13.20;99.90;;;;;;5079616;28;19913;-62
2023/05/01 00:59:47;;;;;;;;;;;13.20;99.90;;;;;;5079475;28;19908;-61
2023/05/01 01:02:13;;;;;;;;;;;13.10;99.90;;;;;;5079517;28;19909;-62
2023/05/01 01:04:43;;;;;;;;;;;13.00;99.90;;;;;;5079314;28;19915;-62
2023/05/01 01:07:10;;;;;;;;;;;12.70;99.90;;;;;;5079227;28;19972;-61
2023/05/01 01:09:48;;;;;;;;;;;13.00;99.90;;;;;;5079466;28;19909;-62
2023/05/01 01:12:26;;;;;;;;;;;13.00;99.90;;;;;;5079147;28;19908;-61
2023/05/01 01:15:04;;;;;;;;;;;12.90;99.90;;;;;;5079188;28;19987;-62
2023/05/01 01:17:32;;;;;;;;;;;12.80;99.90;;;;;;5078866;28;19920;-61
2023/05/01 01:20:17;;;;;;;;;;;12.70;99.90;;;;;;5079469;28;20268;-62
2023/05/01 01:22:45;;;;;;;;;;;12.60;99.90;;;;;;5088116;28;19923;-62
2023/05/01 01:25:17;;;;;;;;;;;12.60;99.90;;;;;;5098988;28;19969;-62
2023/05/01 01:27:57;;;;;;;;;;;12.50;99.90;;;;;;5099124;28;19947;-61
2023/05/01 01:30:35;;;;;;;;;;;12.50;99.90;;;;;;5099289;28;19919;-62
2023/05/01 01:33:03;;;;;;;;;;;12.40;99.90;;;;;;5099267;28;19909;-62
2023/05/01 01:35:30;;;;;;;;;;;12.30;99.90;;;;;;5098809;28;20287;-62
2023/05/01 01:37:59;;;;;;;;;;;12.30;99.90;;;;;;5099001;28;19912;-62
2023/05/01 01:40:30;;;;;;;;;;;12.30;99.90;;;;;;5099075;28;19908;-61
2023/05/01 01:43:04;;;;;;;;;;;12.20;99.90;;;;;;5098861;28;19908;-62
2023/05/01 01:45:40;;;;;;;;;;;12.20;99.90;;;;;;5099200;28;19916;-61
2023/05/01 01:48:08;;;;;;;;;;;12.30;99.90;;;;;;5098996;28;19912;-62
2023/05/01 01:50:35;;;;;;;;;;;12.20;99.90;;;;;;5098971;28;20367;-62
2023/05/01 01:53:03;;;;;;;;;;;12.30;99.90;;;;;;5098617;28;20357;-62
2023/05/01 01:55:30;;;;;;;;;;;12.20;99.90;;;;;;5098463;28;19916;-61
2023/05/01 01:57:57;;;;;;;;;;;12.20;99.90;;;;;;5098475;28;19919;-62
2023/05/01 02:00:22;;;;;;;;;;;12.30;99.90;;;;;;5098777;28;20282;-61
2023/05/01 02:02:49;;;;;;;;;;;12.20;99.90;;;;;;5098653;28;19908;-61
2023/05/01 02:05:15;;;;;;;;;;;12.20;99.90;;;;;;5098519;28;19962;-62
2023/05/01 02:07:42;;;;;;;;;;;12.10;99.90;;;;;;5099102;28;19908;-62
2023/05/01 02:10:08;;;;;;;;;;;12.10;99.90;;;;;;5098665;28;19915;-62
2023/05/01 02:12:35;;;;;;;;;;;12.20;99.90;;;;;;5098292;28;20429;-62
2023/05/01 02:15:01;;;;;;;;;;;12.10;99.90;;;;;;5098593;28;19948;-61
2023/05/01 02:17:27;;;;;;;;;;;12.10;99.90;;;;;;5098133;28;20011;-61
2023/05/01 02:19:54;;;;;;;;;;;12.10;99.90;;;;;;5098149;28;19963;-62
2023/05/01 02:22:21;;;;;;;;;;;12.00;99.90;;;;;;5098399;28;19943;-62
2023/05/01 02:24:47;;;;;;;;;;;12.00;99.90;;;;;;5098377;28;19909;-61
2023/05/01 02:27:20;;;;;;;;;;;12.00;99.90;;;;;;5098206;28;19918;-62
2023/05/01 02:29:46;;;;;;;;;;;12.00;99.90;;;;;;5097559;28;19955;-61
2023/05/01 02:32:11;;;;;;;;;;;11.90;99.90;;;;;;5098795;28;20440;-61
2023/05/01 02:34:37;;;;;;;;;;;12.00;99.90;;;;;;5098565;28;19915;-61
2023/05/01 02:37:06;;;;;;;;;;;11.90;99.90;;;;;;5098240;28;19951;-61
2023/05/01 02:39:32;;;;;;;;;;;12.00;99.90;;;;;;5098232;28;19908;-62
2023/05/01 02:41:58;;;;;;;;;;;11.90;99.90;;;;;;5098729;28;19957;-61
2023/05/01 02:44:25;;;;;;;;;;;12.00;99.90;;;;;;5098204;28;19994;-61
2023/05/01 02:46:51;;;;;;;;;;;11.90;99.90;;;;;;5098369;28;20417;-61
2023/05/01 02:49:17;;;;;;;;;;;11.90;99.90;;;;;;5098194;28;19933;-62
2023/05/01 02:51:45;;;;;;;;;;;11.80;99.90;;;;;;5098247;28;19923;-61
2023/05/01 02:54:11;;;;;;;;;;;11.90;99.90;;;;;;5098140;28;19958;-61
2023/05/01 02:56:37;;;;;;;;;;;12.00;99.90;;;;;;5098365;28;19919;-61
2023/05/01 02:59:03;;;;;;;;;;;11.90;99.90;;;;;;5098292;28;19918;-62
2023/05/01 03:01:28;;;;;;;;;;;11.90;99.90;;;;;;5098361;28;19965;-61
2023/05/01 03:03:54;;;;;;;;;;;11.90;99.90;;;;;;5098039;28;19915;-62
2023/05/01 03:06:20;;;;;;;;;;;11.80;99.90;;;;;;5098596;28;19915;-61
2023/05/01 03:08:46;;;;;;;;;;;11.80;99.90;;;;;;5097973;28;19915;-62
2023/05/01 03:11:13;;;;;;;;;;;11.80;99.90;;;;;;5097781;28;19908;-61
2023/05/01 03:13:38;;;;;;;;;;;11.70;99.90;;;;;;5098576;28;19908;-62
2023/05/01 03:16:04;;;;;;;;;;;11.70;99.90;;;;;;5098040;28;19915;-61
2023/05/01 03:18:30;;;;;;;;;;;11.60;99.90;;;;;;5097852;28;19930;-61
2023/05/01 03:20:58;;;;;;;;;;;11.70;99.90;;;;;;5097864;28;19994;-61
2023/05/01 03:23:24;;;;;;;;;;;11.60;99.90;;;;;;5098065;28;19923;-61
2023/05/01 03:25:50;;;;;;;;;;;11.60;99.90;;;;;;5098072;28;19909;-61
2023/05/01 03:28:16;;;;;;;;;;;11.60;99.90;;;;;;5097452;28;19966;-61
2023/05/01 03:30:43;;;;;;;;;;;11.60;99.90;;;;;;5099475;28;19909;-61
2023/05/01 03:33:08;;;;;;;;;;;11.60;99.90;;;;;;5101719;28;19916;-61
2023/05/01 03:35:34;;;;;;;;;;;11.60;99.90;;;;;;5101975;28;20274;-61
2023/05/01 03:38:00;;;;;;;;;;;11.60;99.90;;;;;;5101293;28;20001;-61
2023/05/01 03:40:25;;;;;;;;;;;11.60;99.90;;;;;;5101461;28;19908;-61
2023/05/01 03:42:51;;;;;;;;;;;11.60;99.90;;;;;;5101824;28;19908;-61
2023/05/01 03:45:16;;;;;;;;;;;11.70;99.90;;;;;;5101410;28;19909;-61
2023/05/01 03:47:42;;;;;;;;;;;11.70;99.90;;;;;;5101602;28;19912;-61
2023/05/01 03:50:08;;;;;;;;;;;11.80;99.90;;;;;;5101329;28;19930;-61
2023/05/01 03:52:33;;;;;;;;;;;11.80;99.90;;;;;;5100884;28;20394;-61
2023/05/01 03:54:59;;;;;;;;;;;11.80;99.90;;;;;;5101016;28;19908;-61
2023/05/01 03:57:25;;;;;;;;;;;11.80;99.90;;;;;;5101393;28;19912;-61
2023/05/01 03:59:51;;;;;;;;;;;11.80;99.90;;;;;;5101093;28;19908;-61
2023/05/01 04:02:17;;;;;;;;;;;11.80;99.90;;;;;;5101090;28;19909;-61
2023/05/01 04:04:43;;;;;;;;;;;11.80;99.90;;;;;;5101001;28;19934;-61
2023/05/01 04:07:09;;;;;;;;;;;11.80;99.90;;;;;;5100581;28;19952;-61
2023/05/01 04:09:34;;;;;;;;;;;11.70;99.90;;;;;;5100868;28;19908;-62
2023/05/01 04:12:01;;;;;;;;;;;11.80;99.90;;;;;;5100482;28;20062;-61
2023/05/01 04:14:26;;;;;;;;;;;11.70;99.90;;;;;;5100829;28;20006;-61
2023/05/01 04:16:52;;;;;;;;;;;11.60;99.90;;;;;;5100474;28;19974;-61
2023/05/01 04:19:18;;;;;;;;;;;11.60;99.90;;;;;;5100973;28;19912;-61
2023/05/01 04:21:43;;;;;;;;;;;11.50;99.90;;;;;;5100716;28;19908;-61
2023/05/01 04:24:09;;;;;;;;;;;11.50;99.90;;;;;;5100439;28;19914;-61
2023/05/01 04:26:34;;;;;;;;;;;11.40;99.90;;;;;;5100606;28;19912;-61
2023/05/01 04:29:00;;;;;;;;;;;11.50;99.90;;;;;;5100173;28;19930;-62
2023/05/01 04:31:26;;;;;;;;;;;11.50;99.90;;;;;;5100221;28;19912;-61
2023/05/01 04:33:52;;;;;;;;;;;11.60;99.90;;;;;;5100075;28;20007;-62
2023/05/01 04:36:18;;;;;;;;;;;11.60;99.90;;;;;;5100086;28;20283;-61
2023/05/01 04:38:43;;;;;;;;;;;11.70;99.90;;;;;;5100328;28;19908;-61
2023/05/01 04:41:09;;;;;;;;;;;11.70;99.90;;;;;;5100292;28;19993;-61
2023/05/01 04:43:35;;;;;;;;;;;11.80;99.90;;;;;;5099740;28;19922;-62
2023/05/01 04:46:02;;;;;;;;;;;11.70;99.90;;;;;;5100166;28;19916;-61
2023/05/01 04:48:27;;;;;;;;;;;11.80;99.90;;;;;;5100162;28;19908;-61
2023/05/01 04:50:54;;;;;;;;;;;11.80;99.90;;;;;;5099945;28;19909;-61
2023/05/01 04:53:19;;;;;;;;;;;11.80;99.90;;;;;;5100060;28;19914;-62
2023/05/01 04:55:45;;;;;;;;;;;11.90;99.90;;;;;;5100071;28;20007;-61
2023/05/01 04:58:10;;;;;;;;;;;11.90;99.90;;;;;;5099668;28;19919;-62
2023/05/01 05:00:36;;;;;;;;;;;12.00;99.90;;;;;;5100066;28;19908;-61
2023/05/01 05:03:02;;;;;;;;;;;12.00;99.90;;;;;;5099816;28;20390;-61
2023/05/01 05:05:27;;;;;;;;;;;12.10;99.90;;;;;;5099635;28;20005;-61
2023/05/01 05:07:53;;;;;;;;;;;12.00;99.90;;;;;;5099617;28;19908;-61
2023/05/01 05:10:19;;;;;;;;;;;11.90;99.90;;;;;;5100027;28;20306;-61
2023/05/01 05:12:44;;;;;;;;;;;12.00;99.90;;;;;;5099464;28;19912;-62
2023/05/01 05:15:10;;;;;;;;;;;11.90;99.90;;;;;;5099623;28;19908;-61
2023/05/01 05:17:36;;;;;;;;;;;12.00;99.90;;;;;;5099298;28;19912;-61
2023/05/01 05:20:02;;;;;;;;;;;12.00;99.90;;;;;;5099502;28;19922;-61
2023/05/01 05:22:27;;;;;;;;;;;12.00;99.90;;;;;;5099534;28;19927;-61
2023/05/01 05:24:54;;;;;;;;;;;12.00;99.90;;;;;;5099470;28;19916;-61
2023/05/01 05:27:20;;;;;;;;;;;12.10;99.90;;;;;;5099125;28;19908;-61
2023/05/01 05:29:46;;;;;;;;;;;12.10;99.90;;;;;;5098933;28;19924;-61
2023/05/01 05:32:12;;;;;;;;;;;12.10;99.90;;;;;;5099073;28;19934;-61
2023/05/01 05:34:38;;;;;;;;;;;12.20;99.90;;;;;;5099318;28;19908;-61
2023/05/01 05:37:03;;;;;;;;;;;12.20;99.90;;;;;;5098879;28;19919;-61
2023/05/01 05:39:30;;;;;;;;;;;12.20;99.90;;;;;;5099126;28;20014;-61
2023/05/01 05:41:56;;;;;;;;;;;12.30;99.90;;;;;;5099141;28;19915;-62
2023/05/01 05:44:21;;;;;;;;;;;12.40;99.90;;;;;;5099228;28;19908;-61
2023/05/01 05:46:47;;;;;;;;;;;12.40;99.90;;;;;;5099169;28;19908;-61
2023/05/01 05:49:12;;;;;;;;;;;12.50;99.90;;;;;;5097412;28;19915;-61
2023/05/01 05:51:38;;;;;;;;;;;12.50;99.90;;;;;;5098982;28;19912;-61
2023/05/01 05:54:04;;;;;;;;;;;12.60;99.90;;;;;;5098388;28;20390;-61
2023/05/01 05:56:29;;;;;;;;;;;12.80;99.90;;;;;;5098598;28;20350;-61
2023/05/01 05:58:55;;;;;;;;;;;12.80;99.90;;;;;;5098465;28;19971;-61
2023/05/01 06:01:21;;;;;;;;;;;12.80;99.90;;;;;;5098756;28;19908;-61
2023/05/01 06:03:47;;;;;;;;;;;12.80;99.90;;;;;;5098352;28;19960;-62
2023/05/01 06:06:12;;;;;;;;;;;12.90;99.90;;;;;;5098875;28;19908;-61
2023/05/01 06:08:38;;;;;;;;;;;12.90;99.90;;;;;;5098910;28;19908;-61
2023/05/01 06:11:03;;;;;;;;;;;13.00;99.90;;;;;;5098369;28;19908;-61
2023/05/01 06:13:29;;;;;;;;;;;13.10;99.90;;;;;;5098928;28;19912;-61
2023/05/01 06:15:55;;;;;;;;;;;13.00;99.90;;;;;;5098568;28;19915;-61
2023/05/01 06:18:20;;;;;;;;;;;13.10;99.90;;;;;;5098129;28;20393;-62
2023/05/01 06:20:46;;;;;;;;;;;13.20;99.90;;;;;;5098000;28;19945;-61
2023/05/01 06:23:12;;;;;;;;;;;13.30;99.90;;;;;;5094143;28;19920;-61
2023/05/01 06:25:38;;;;;;;;;;;13.30;99.90;;;;;;5078040;28;19980;-62
2023/05/01 06:28:04;;;;;;;;;;;13.40;99.90;;;;;;5077488;28;19958;-61
2023/05/01 06:30:30;;;;;;;;;;;13.40;99.90;;;;;;5077837;28;20387;-62
2023/05/01 06:32:55;;;;;;;;;;;13.50;99.90;;;;;;5077853;28;19954;-61
2023/05/01 06:35:21;;;;;;;;;;;13.50;99.90;;;;;;5078274;28;19909;-62
2023/05/01 06:37:47;;;;;;;;;;;13.50;99.90;;;;;;5077252;28;19920;-62
2023/05/01 06:40:12;;;;;;;;;;;13.70;99.90;;;;;;5077816;28;19920;-61
2023/05/01 06:42:38;;;;;;;;;;;13.70;99.90;;;;;;5091713;28;19951;-61
2023/05/01 06:45:07;;;;;;;;;;;13.70;99.90;;;;;;5098029;28;19971;-62
2023/05/01 06:47:33;;;;;;;;;;;13.50;99.90;;;;;;5097800;28;19912;-61
2023/05/01 06:49:59;;;;;;;;;;;13.80;99.90;;;;;;5097964;28;19909;-61
2023/05/01 06:52:24;;;;;;;;;;;13.80;99.90;;;;;;5095035;28;19908;-61
2023/05/01 06:54:50;;;;;;;;;;;13.80;99.90;;;;;;5088093;28;20512;-62
2023/05/01 06:57:15;;;;;;;;;;;13.80;99.90;;;;;;5085967;28;20022;-62
2023/05/01 06:59:41;;;;;;;;;;;13.90;99.90;;;;;;5078954;28;19955;-61
2023/05/01 07:02:07;;;;;;;;;;;14.00;99.90;;;;;;5077682;28;19954;-61
2023/05/01 07:04:32;;;;;;;;;;;14.00;99.90;;;;;;5083516;28;19943;-62
2023/05/01 07:06:58;;;;;;;;;;;14.10;99.90;;;;;;5101471;28;19958;-62
2023/05/01 07:09:24;;;;;;;;;;;14.20;99.90;;;;;;5101738;28;19915;-62
2023/05/01 07:11:49;;;;;;;;;;;14.30;99.90;;;;;;5101802;28;20054;-62
2023/05/01 07:14:15;;;;;;;;;;;14.20;99.90;;;;;;5101657;28;19908;-61
2023/05/01 07:16:41;;;;;;;;;;;14.40;99.90;;;;;;5101295;28;19964;-61
2023/05/01 07:19:06;;;;;;;;;;;14.50;99.90;;;;;;5101557;28;19909;-62
2023/05/01 07:21:32;;;;;;;;;;;14.50;99.90;;;;;;5102231;28;20315;-61
2023/05/01 07:23:58;;;;;;;;;;;14.60;99.90;;;;;;5101284;28;19908;-62
2023/05/01 07:26:25;;;;;;;;;;;14.60;99.90;;;;;;5101597;28;19908;-62
2023/05/01 07:28:50;;;;;;;;;;;14.60;99.90;;;;;;5101224;28;19921;-62
2023/05/01 07:31:16;;;;;;;;;;;14.70;99.90;;;;;;5101471;28;19961;-62
2023/05/01 07:33:41;;;;;;;;;;;14.70;99.90;;;;;;5101258;28;19955;-61
2023/05/01 07:36:08;;;;;;;;;;;14.90;99.90;;;;;;5101322;28;19912;-61
2023/05/01 07:38:33;;;;;;;;;;;14.90;99.90;;;;;;5100656;28;19958;-62
2023/05/01 07:40:59;;;;;;;;;;;15.00;99.90;;;;;;5101057;28;19908;-62
2023/05/01 07:43:25;;;;;;;;;;;15.10;99.90;;;;;;5100822;28;19908;-61
2023/05/01 07:45:57;;;;;;;;;;;15.10;99.90;;;;;;5101105;28;20001;-62
2023/05/01 07:48:23;;;;;;;;;;;15.20;99.90;;;;;;5101039;28;19995;-62
2023/05/01 07:50:49;;;;;;;;;;;15.20;99.90;;;;;;5100618;28;20005;-62
2023/05/01 07:53:15;;;;;;;;;;;15.30;99.90;;;;;;5099866;28;19909;-62
2023/05/01 07:55:40;;;;;;;;;;;15.50;99.90;;;;;;5090638;28;19908;-62
2023/05/01 07:58:06;;;;;;;;;;;15.50;99.90;;;;;;5089751;28;19916;-62
2023/05/01 08:00:32;;;;;;;;;;;15.50;99.90;;;;;;5083586;28;19958;-62
2023/05/01 08:02:57;;;;;;;;;;;15.40;99.90;;;;;;5080410;28;19923;-62
2023/05/01 08:05:23;;;;;;;;;;;15.50;99.90;;;;;;5086866;28;19916;-62
2023/05/01 08:07:49;;;;;;;;;;;15.70;99.90;;;;;;5087487;28;20448;-62
2023/05/01 08:10:14;;;;;;;;;;;15.70;99.90;;;;;;5096466;28;20397;-62
2023/05/01 08:12:40;;;;;;;;;;;15.80;99.90;;;;;;5100350;28;20035;-62
2023/05/01 08:15:06;;;;;;;;;;;15.90;99.90;;;;;;5100451;28;19919;-62
2023/05/01 08:17:33;;;;;;;;;;;15.90;99.90;;;;;;5088697;28;19916;-62
2023/05/01 08:19:59;;;;;;;;;;;16.10;99.90;;;;;;5099118;28;20279;-62
2023/05/01 08:22:25;;;;;;;;;;;16.10;99.90;;;;;;5079965;28;19908;-62
2023/05/01 08:24:50;;;;;;;;;;;16.10;99.90;;;;;;5118837;28;19954;-62
2023/05/01 08:27:16;;;;;;;;;;;16.10;99.90;;;;;;5101706;28;19920;-61
2023/05/01 08:29:42;;;;;;;;;;;16.10;99.90;;;;;;5088885;28;19920;-62
2023/05/01 08:32:08;;;;;;;;;;;16.00;99.90;;;;;;5089903;28;19908;-62
2023/05/01 08:34:33;;;;;;;;;;;16.20;99.90;;;;;;5088109;28;19909;-62
2023/05/01 08:36:59;;;;;;;;;;;16.30;99.90;;;;;;5094872;28;19912;-62
2023/05/01 08:39:24;;;;;;;;;;;16.40;99.90;;;;;;5093217;28;19947;-62
2023/05/01 08:41:51;;;;;;;;;;;16.30;99.90;;;;;;5096904;28;19985;-62
2023/05/01 08:44:18;;;;;;;;;;;16.30;99.90;;;;;;5094669;28;19912;-62
2023/05/01 08:46:50;;;;;;;;;;;16.30;99.90;;;;;;5088445;28;19912;-62
2023/05/01 08:49:16;;;;;;;;;;;16.40;99.90;;;;;;5084988;28;19912;-61
2023/05/01 08:51:48;;;;;;;;;;;16.20;99.90;;;;;;5079906;28;19912;-62
2023/05/01 08:54:15;;;;;;;;;;;16.30;99.90;;;;;;5096530;28;19920;-62
2023/05/01 08:56:45;;;;;;;;;;;16.50;99.90;;;;;;5113006;28;19920;-62
2023/05/01 08:59:13;;;;;;;;;;;16.70;99.90;;;;;;5103508;28;20007;-62
2023/05/01 09:01:40;;;;;;;;;;;16.70;99.90;;;;;;5099205;28;19914;-62
2023/05/01 09:04:06;;;;;;;;;;;16.70;99.90;;;;;;5099395;28;20333;-62
2023/05/01 09:06:31;;;;;;;;;;;16.80;99.90;;;;;;5101026;28;20267;-62
2023/05/01 09:08:58;;;;;;;;;;;16.90;99.90;;;;;;5100618;28;19918;-62
2023/05/01 09:11:24;;;;;;;;;;;16.90;99.90;;;;;;5093765;28;20008;-62
2023/05/01 09:13:51;;;;;;;;;;;16.80;99.90;;;;;;5079035;28;19908;-62
2023/05/01 09:16:17;;;;;;;;;;;16.70;99.90;;;;;;5078425;28;20293;-62
2023/05/01 09:18:42;;;;;;;;;;;16.90;99.90;;;;;;5083424;28;19918;-62
2023/05/01 09:21:09;;;;;;;;;;;16.80;99.90;;;;;;5078646;28;19908;-62
2023/05/01 09:23:36;;;;;;;;;;;16.80;99.90;;;;;;5079028;28;19916;-62
2023/05/01 09:26:05;;;;;;;;;;;16.90;99.90;;;;;;5078730;28;19908;-62
2023/05/01 09:28:46;;;;;;;;;;;17.00;99.90;;;;;;5078439;28;19959;-62
2023/05/01 09:31:27;;;;;;;;;;;16.90;99.90;;;;;;5078377;28;20441;-62
2023/05/01 09:33:57;;;;;;;;;;;16.90;99.90;;;;;;5078580;28;19987;-62
2023/05/01 09:36:23;;;;;;;;;;;17.20;99.90;;;;;;5078706;28;19954;-62
2023/05/01 09:38:48;;;;;;;;;;;17.50;99.90;;;;;;5078316;28;20265;-62
2023/05/01 09:41:14;;;;;;;;;;;17.80;99.90;;;;;;5078511;28;19909;-62
2023/05/01 09:43:40;;;;;;;;;;;18.20;99.90;;;;;;5078680;28;19958;-62
2023/05/01 09:46:10;;;;;;;;;;;18.40;99.90;;;;;;5078210;28;19912;-62
2023/05/01 09:48:36;;;;;;;;;;;18.80;99.90;;;;;;5078324;28;19995;-62
2023/05/01 09:51:21;;;;;;;;;;;19.20;99.90;;;;;;5078272;28;20353;-62
2023/05/01 09:53:46;;;;;;;;;;;19.80;99.90;;;;;;5078514;28;19951;-62
2023/05/01 09:56:13;;;;;;;;;;;20.50;99.90;;;;;;5078090;28;19913;-62
2023/05/01 09:58:39;;;;;;;;;;;21.60;99.90;;;;;;5078025;28;19915;-62
2023/05/01 10:01:05;;;;;;;;;;;22.60;99.90;;;;;;5078119;28;19908;-62
2023/05/01 10:03:32;;;;;;;;;;;23.40;93.60;;;;;;5078032;28;19912;-62
2023/05/01 10:06:01;;;;;;;;;;;23.90;97.80;;;;;;5078096;28;19958;-62
2023/05/01 10:08:46;;;;;;;;;;;25.10;99.90;;;;;;5078264;28;19931;-62
2023/05/01 10:11:12;;;;;;;;;;;25.00;81.30;;;;;;5078004;28;19909;-63
2023/05/01 10:13:38;;;;;;;;;;;23.50;81.50;;;;;;5078221;28;19908;-62
2023/05/01 10:16:06;;;;;;;;;;;22.90;87.30;;;;;;5077964;28;19915;-62
2023/05/01 10:18:35;;;;;;;;;;;22.10;79.20;;;;;;5077679;28;20335;-62
2023/05/01 10:21:01;;;;;;;;;;;21.70;78.90;;;;;;5077870;28;19908;-62
2023/05/01 10:23:28;;;;;;;;;;;22.90;99.90;;;;;;5077941;28;19909;-62
2023/05/01 10:25:54;;;;;;;;;;;23.80;88.10;;;;;;5078228;28;19912;-62
2023/05/01 10:28:20;;;;;;;;;;;23.70;70.70;;;;;;5077689;28;20295;-62
2023/05/01 10:30:47;;;;;;;;;;;24.70;76.30;;;;;;5077865;28;19909;-62
2023/05/01 10:33:13;;;;;;;;;;;25.20;72.60;;;;;;5077819;28;20359;-62
2023/05/01 10:35:40;;;;;;;;;;;24.60;70.40;;;;;;5077601;28;19974;-62
2023/05/01 10:38:11;;;;;;;;;;;24.90;81.20;;;;;;5077593;28;20379;-62
2023/05/01 10:40:40;;;;;;;;;;;26.00;84.00;;;;;;5077356;28;19995;-62
2023/05/01 10:43:19;;;;;;;;;;;27.80;68.30;;;;;;5077472;28;20277;-62
2023/05/01 10:45:46;;;;;;;;;;;27.40;65.20;;;;;;5077480;28;20358;-63
2023/05/01 10:48:12;;;;;;;;;;;26.30;64.80;;;;;;5077862;28;20597;-63
2023/05/01 10:51:13;;;;;;;;;;;24.90;65.20;;;;;;5077759;28;19961;-62
2023/05/01 10:53:39;;;;;;;;;;;25.10;71.50;;;;;;5019085;28;19909;-62
2023/05/01 10:56:25;;;;;;;;;;;26.40;76.30;;;;;;5069114;28;19916;-62
2023/05/01 10:58:51;;;;;;;;;;;26.80;69.00;;;;;;5077392;28;19919;-63
2023/05/01 11:01:26;;;;;;;;;;;25.30;62.30;;;;;;5077468;28;19908;-63
2023/05/01 11:03:51;;;;;;;;;;;24.50;66.80;;;;;;5077730;28;19908;-63
2023/05/01 11:06:17;;;;;;;;;;;23.90;65.20;;;;;;5077736;28;20003;-63
2023/05/01 11:08:44;;;;;;;;;;;23.30;64.70;;;;;;5077494;28;19919;-63
2023/05/01 11:11:18;;;;;;;;;;;23.60;72.40;;;;;;5077535;28;19909;-63
2023/05/01 11:14:03;;;;;;;;;;;24.80;65.40;;;;;;5077644;28;19931;-62
2023/05/01 11:16:41;;;;;;;;;;;25.70;68.60;;;;;;5077293;28;20422;-62
2023/05/01 11:19:08;;;;;;;;;;;25.10;61.40;;;;;;5077304;28;19912;-63
2023/05/01 11:21:37;;;;;;;;;;;24.80;65.40;;;;;;5077113;28;20402;-62
2023/05/01 11:24:04;;;;;;;;;;;25.00;62.90;;;;;;5077469;28;19913;-63
2023/05/01 11:26:29;;;;;;;;;;;24.60;68.40;;;;;;5077446;28;19939;-63
2023/05/01 11:28:58;;;;;;;;;;;24.30;66.40;;;;;;5076751;28;20388;-63
2023/05/01 11:31:27;;;;;;;;;;;24.60;68.90;;;;;;5077108;28;19919;-63
2023/05/01 11:33:59;;;;;;;;;;;24.80;64.40;;;;;;5077251;28;19912;-62
2023/05/01 11:36:28;;;;;;;;;;;25.00;62.30;;;;;;5077026;28;19908;-63
2023/05/01 11:38:55;;;;;;;;;;;24.90;63.80;;;;;;5077183;28;19908;-63
2023/05/01 11:41:25;;;;;;;;;;;26.00;70.50;;;;;;5077400;28;19963;-62
2023/05/01 11:43:52;;;;;;;;;;;27.10;64.00;;;;;;5077120;28;19931;-63
2023/05/01 11:46:24;;;;;;;;;;;28.00;66.10;;;;;;5077581;28;19992;-63
2023/05/01 11:48:49;;;;;;;;;;;28.60;61.50;;;;;;5077027;28;20426;-63
2023/05/01 11:51:15;;;;;;;;;;;28.80;63.90;;;;;;5077114;28;19912;-63
2023/05/01 11:53:41;;;;;;;;;;;29.30;63.10;;;;;;5080085;28;20425;-63
2023/05/01 11:56:19;;;;;;;;;;;29.90;65.70;;;;;;5080634;28;20422;-63
2023/05/01 11:58:46;;;;;;;;;;;28.20;56.10;;;;;;5080999;28;19919;-63
2023/05/01 12:01:13;;;;;;;;;;;27.60;62.30;;;;;;5080723;28;19909;-63
2023/05/01 12:03:41;;;;;;;;;;;27.00;57.90;;;;;;5080676;28;19909;-62
2023/05/01 12:06:08;;;;;;;;;;;26.40;55.90;;;;;;5080230;28;20340;-62
2023/05/01 12:08:34;;;;;;;;;;;26.10;64.30;;;;;;5080413;28;19912;-62
2023/05/01 12:10:59;;;;;;;;;;;26.10;63.50;;;;;;5080737;28;20348;-62
2023/05/01 12:13:25;;;;;;;;;;;25.90;64.90;;;;;;5080515;28;19940;-62
2023/05/01 12:15:52;;;;;;;;;;;26.10;63.40;;;;;;5079576;28;19909;-62
2023/05/01 12:18:20;;;;;;;;;;;26.10;62.50;;;;;;5080659;28;19956;-62
2023/05/01 12:20:51;;;;;;;;;;;26.20;62.30;;;;;;5080016;28;19943;-62
2023/05/01 12:23:17;;;;;;;;;;;26.50;63.70;;;;;;5080510;28;19915;-62
2023/05/01 12:25:44;;;;;;;;;;;26.70;63.10;;;;;;5079967;28;19912;-63
2023/05/01 12:28:12;;;;;;;;;;;26.70;62.80;;;;;;5079927;28;19915;-62
2023/05/01 12:30:38;;;;;;;;;;;27.00;62.80;;;;;;5080058;28;19913;-62
2023/05/01 12:33:14;;;;;;;;;;;26.30;62.70;;;;;;5080186;28;19919;-63
2023/05/01 12:35:40;;;;;;;;;;;25.70;60.40;;;;;;5080197;28;19964;-62
2023/05/01 12:38:10;;;;;;;;;;;24.40;64.20;;;;;;5079564;28;19916;-63
2023/05/01 12:40:35;;;;;;;;;;;23.40;66.50;;;;;;5079750;28;19917;-62
2023/05/01 12:43:01;;;;;;;;;;;22.70;65.80;;;;;;5079355;28;19993;-62
2023/05/01 12:45:27;;;;;;;;;;;23.10;67.10;;;;;;5079950;28;19916;-62
2023/05/01 12:47:52;;;;;;;;;;;23.80;67.70;;;;;;5080115;28;20375;-62
2023/05/01 12:50:18;;;;;;;;;;;24.40;67.50;;;;;;5079683;28;20316;-62
2023/05/01 12:52:44;;;;;;;;;;;24.90;67.80;;;;;;5079591;28;19930;-62
2023/05/01 12:55:11;;;;;;;;;;;24.80;66.40;;;;;;5079625;28;19916;-63
2023/05/01 12:57:50;;;;;;;;;;;23.90;66.00;;;;;;5079388;28;20400;-62
2023/05/01 13:00:15;;;;;;;;;;;23.90;69.20;;;;;;5079504;28;19935;-61
2023/05/01 13:02:42;;;;;;;;;;;24.60;67.30;;;;;;5079384;28;19908;-62
2023/05/01 13:05:09;;;;;;;;;;;25.20;67.30;;;;;;5079263;28;19908;-62
2023/05/01 13:07:35;;;;;;;;;;;25.60;65.10;;;;;;5079349;28;19958;-62
2023/05/01 13:10:02;;;;;;;;;;;26.30;66.50;;;;;;5078798;28;19962;-62
2023/05/01 13:12:28;;;;;;;;;;;26.40;63.40;;;;;;5079067;28;19915;-62
2023/05/01 13:14:54;;;;;;;;;;;26.30;64.30;;;;;;5079626;28;19908;-62
2023/05/01 13:17:21;;;;;;;;;;;25.90;63.80;;;;;;5079259;28;20501;-62
2023/05/01 13:19:53;;;;;;;;;;;25.30;63.00;;;;;;5079269;28;19909;-62
2023/05/01 13:22:27;;;;;;;;;;;24.60;63.50;;;;;;5078991;28;19968;-62
2023/05/01 13:24:55;;;;;;;;;;;23.60;64.60;;;;;;5078908;28;20354;-62
2023/05/01 13:27:21;;;;;;;;;;;23.80;67.40;;;;;;5079091;28;19948;-62
2023/05/01 13:29:56;;;;;;;;;;;23.90;66.10;;;;;;5078609;28;19959;-62
2023/05/01 13:32:23;;;;;;;;;;;23.90;64.50;;;;;;5078553;28;20482;-63
2023/05/01 13:34:49;;;;;;;;;;;24.60;66.80;;;;;;5078594;28;19917;-62
2023/05/01 13:37:15;;;;;;;;;;;25.20;65.80;;;;;;5078741;28;19935;-62
2023/05/01 13:39:43;;;;;;;;;;;25.50;64.30;;;;;;5078600;28;19912;-62
2023/05/01 13:42:12;;;;;;;;;;;25.50;64.50;;;;;;5078508;28;19908;-63
2023/05/01 13:44:47;;;;;;;;;;;25.50;62.70;;;;;;5078680;28;19916;-63
2023/05/01 13:47:14;;;;;;;;;;;25.30;63.00;;;;;;5078364;28;19908;-62
2023/05/01 13:49:41;;;;;;;;;;;25.30;63.60;;;;;;5078193;28;20275;-62
2023/05/01 13:52:06;;;;;;;;;;;24.50;64.70;;;;;;5078023;28;20338;-62
2023/05/01 13:54:32;;;;;;;;;;;24.10;66.00;;;;;;5078515;28;19908;-62
2023/05/01 13:56:59;;;;;;;;;;;23.90;66.10;;;;;;5078052;28;19912;-62
2023/05/01 13:59:30;;;;;;;;;;;24.10;66.90;;;;;;5090896;28;19908;-62
2023/05/01 14:01:55;;;;;;;;;;;22.60;69.10;;;;;;5097613;28;19938;-62
2023/05/01 14:04:21;;;;;;;;;;;22.30;68.30;;;;;;5098466;28;19912;-62
2023/05/01 14:06:47;;;;;;;;;;;21.80;69.50;;;;;;5098212;28;19915;-62
2023/05/01 14:09:16;;;;;;;;;;;22.10;69.20;;;;;;5098271;28;19912;-62
2023/05/01 14:11:45;;;;;;;;;;;22.30;72.30;;;;;;5098231;28;19999;-62
2023/05/01 14:14:13;;;;;;;;;;;22.90;71.60;;;;;;5098102;28;19915;-62
2023/05/01 14:16:39;;;;;;;;;;;23.00;71.30;;;;;;5097884;28;19908;-63